createdAt,value
2018-07-24T00:01:39.817Z,11.87
2018-07-24T00:04:08.239Z,13.27
2018-07-24T00:06:36.635Z,12.63
2018-07-24T00:09:07.557Z,12.80
2018-07-24T00:11:36.053Z,12.40
2018-07-24T00:14:04.541Z,15.33
2018-07-24T00:16:33.012Z,12.10
2018-07-24T00:19:01.159Z,12.40
2018-07-24T00:21:29.744Z,12.67
2018-07-24T00:23:58.424Z,13.80
2018-07-24T00:26:26.836Z,11.77
2018-07-24T00:28:55.237Z,11.03
2018-07-24T00:31:23.700Z,12.10
2018-07-24T00:33:52.127Z,12.77
2018-07-24T00:36:20.520Z,12.50
2018-07-24T00:38:49.316Z,12.53
2018-07-24T00:41:17.759Z,12.00
2018-07-24T00:43:46.228Z,12.27
2018-07-24T00:46:14.958Z,11.70
2018-07-24T00:48:43.388Z,12.87
2018-07-24T00:51:11.807Z,12.13
2018-07-24T00:53:40.297Z,11.97
2018-07-24T00:56:08.693Z,12.27
2018-07-24T00:58:37.209Z,12.73
2018-07-24T01:01:05.599Z,12.93
2018-07-24T01:03:34.048Z,13.30
2018-07-24T01:06:02.576Z,12.60
2018-07-24T01:08:31.022Z,13.27
2018-07-24T01:10:59.403Z,12.60
2018-07-24T01:13:27.821Z,13.20
2018-07-24T01:15:56.337Z,13.47
2018-07-24T01:18:24.767Z,13.40
2018-07-24T01:20:53.181Z,12.57
2018-07-24T01:23:21.592Z,12.67
2018-07-24T01:25:49.984Z,12.83
2018-07-24T01:28:18.368Z,13.40
2018-07-24T01:30:46.581Z,13.90
2018-07-24T01:33:15.345Z,13.17
2018-07-24T01:35:43.779Z,13.30
2018-07-24T01:38:12.135Z,12.97
2018-07-24T01:40:40.601Z,13.47
2018-07-24T01:43:09.016Z,12.33
2018-07-24T01:45:37.570Z,13.67
2018-07-24T01:48:05.992Z,13.43
2018-07-24T01:50:34.448Z,13.20
2018-07-24T01:53:02.854Z,12.63
2018-07-24T01:55:31.294Z,13.20
2018-07-24T01:57:59.705Z,12.23
2018-07-24T02:00:28.089Z,13.00
2018-07-24T02:02:56.500Z,13.10
2018-07-24T02:05:24.893Z,12.83
2018-07-24T02:07:52.989Z,12.93
2018-07-24T02:10:21.385Z,13.17
2018-07-24T02:12:49.837Z,12.53
2018-07-24T02:15:18.277Z,12.97
2018-07-24T02:17:46.795Z,12.97
2018-07-24T02:20:15.280Z,13.27
2018-07-24T02:22:43.716Z,13.40
2018-07-24T02:25:12.151Z,12.47
2018-07-24T02:27:40.536Z,12.57
2018-07-24T02:30:09.052Z,12.77
2018-07-24T02:32:37.604Z,12.97
2018-07-24T02:35:06.048Z,13.07
2018-07-24T02:37:34.444Z,13.50
2018-07-24T02:40:02.871Z,12.50
2018-07-24T02:42:31.325Z,12.27
2018-07-24T02:44:59.800Z,13.47
2018-07-24T02:47:28.301Z,13.10
2018-07-24T02:49:56.861Z,14.07
2018-07-24T02:52:25.243Z,13.07
2018-07-24T02:54:53.682Z,13.13
2018-07-24T02:57:22.137Z,18.13
2018-07-24T02:59:50.588Z,14.37
2018-07-24T03:02:18.988Z,14.97
2018-07-24T03:04:47.447Z,14.73
2018-07-24T03:07:15.895Z,15.13
2018-07-24T03:09:44.520Z,19.23
2018-07-24T03:12:13.013Z,13.67
2018-07-24T03:14:41.396Z,12.83
2018-07-24T03:17:09.804Z,13.43
2018-07-24T03:19:38.173Z,13.87
2018-07-24T03:22:06.624Z,13.47
2018-07-24T03:24:35.013Z,13.63
2018-07-24T03:27:03.480Z,14.07
2018-07-24T03:29:31.900Z,14.33
2018-07-24T03:32:00.349Z,13.70
2018-07-24T03:34:28.838Z,13.73
2018-07-24T03:36:57.221Z,15.07
2018-07-24T03:39:25.700Z,14.23
2018-07-24T03:41:54.124Z,14.17
2018-07-24T03:44:22.570Z,13.87
2018-07-24T03:46:50.978Z,14.10
2018-07-24T03:49:19.480Z,14.87
2018-07-24T03:51:47.881Z,14.00
2018-07-24T03:54:16.459Z,14.80
2018-07-24T03:56:44.816Z,15.00
2018-07-24T03:59:13.288Z,14.60
2018-07-24T04:01:41.412Z,14.83
2018-07-24T04:04:09.818Z,14.20
2018-07-24T04:06:38.200Z,14.57
2018-07-24T04:09:08.637Z,13.67
2018-07-24T04:11:37.052Z,14.07
2018-07-24T04:14:05.512Z,13.27
2018-07-24T04:16:33.908Z,13.47
2018-07-24T04:19:02.329Z,13.20
2018-07-24T04:21:30.744Z,13.40
2018-07-24T04:23:59.177Z,13.73
2018-07-24T04:26:27.598Z,13.03
2018-07-24T04:28:55.969Z,13.60
2018-07-24T04:31:24.432Z,13.17
2018-07-24T04:33:52.832Z,13.67
2018-07-24T04:36:21.259Z,13.53
2018-07-24T04:38:49.667Z,13.80
2018-07-24T04:41:18.089Z,14.77
2018-07-24T04:43:46.609Z,14.33
2018-07-24T04:46:16.083Z,13.77
2018-07-24T04:48:44.272Z,13.10
2018-07-24T04:51:12.686Z,13.33
2018-07-24T04:53:41.072Z,13.80
2018-07-24T04:56:09.488Z,13.40
2018-07-24T04:58:37.892Z,14.33
2018-07-24T05:01:06.492Z,15.87
2018-07-24T05:03:34.943Z,15.50
2018-07-24T05:06:03.321Z,16.10
2018-07-24T05:08:31.768Z,14.17
2018-07-24T05:11:00.176Z,13.93
2018-07-24T05:13:28.632Z,14.97
2018-07-24T05:15:57.076Z,14.73
2018-07-24T05:18:25.481Z,15.37
2018-07-24T05:20:53.923Z,14.77
2018-07-24T05:23:22.357Z,13.50
2018-07-24T05:25:50.843Z,17.03
2018-07-24T05:28:19.195Z,15.50
2018-07-24T05:30:47.603Z,14.47
2018-07-24T05:33:16.031Z,14.77
2018-07-24T05:35:44.452Z,15.40
2018-07-24T05:38:12.946Z,14.13
2018-07-24T05:40:41.404Z,12.57
2018-07-24T05:43:09.845Z,12.23
2018-07-24T05:45:38.261Z,10.93
2018-07-24T05:48:06.661Z,12.23
2018-07-24T05:50:35.070Z,9.83
2018-07-24T05:53:03.519Z,9.10
2018-07-24T05:55:31.918Z,8.10
2018-07-24T05:58:00.338Z,8.83
2018-07-24T06:00:28.796Z,10.10
2018-07-24T06:02:57.214Z,7.37
2018-07-24T06:05:25.631Z,10.35
2018-07-24T06:07:54.045Z,7.60
2018-07-24T06:10:22.473Z,8.63
2018-07-24T06:12:50.846Z,7.90
2018-07-24T06:15:19.232Z,6.60
2018-07-24T06:17:47.650Z,6.37
2018-07-24T06:20:16.096Z,6.83
2018-07-24T06:22:44.552Z,8.05
2018-07-24T06:25:12.937Z,8.33
2018-07-24T06:27:41.341Z,7.50
2018-07-24T06:30:09.744Z,6.40
2018-07-24T06:32:38.164Z,6.65
2018-07-24T06:35:06.649Z,7.53
2018-07-24T06:37:34.991Z,9.53
2018-07-24T06:40:03.428Z,8.85
2018-07-24T06:42:31.878Z,7.25
2018-07-24T06:45:00.309Z,7.60
2018-07-24T06:47:28.733Z,6.87
2018-07-24T06:49:57.334Z,5.80
2018-07-24T06:52:25.720Z,5.62
2018-07-24T06:54:54.119Z,6.12
2018-07-24T06:57:22.543Z,9.48
2018-07-24T06:59:50.983Z,6.85
2018-07-24T07:02:19.484Z,6.58
2018-07-24T07:04:47.938Z,6.60
2018-07-24T07:07:16.396Z,9.58
2018-07-24T07:09:44.772Z,8.70
2018-07-24T07:12:13.444Z,9.15
2018-07-24T07:14:41.852Z,7.05
2018-07-24T07:17:10.282Z,7.20
2018-07-24T07:19:38.715Z,6.42
2018-07-24T07:22:07.123Z,8.97
2018-07-24T07:24:35.541Z,8.00
2018-07-24T07:27:03.975Z,7.97
2018-07-24T07:29:32.392Z,5.97
2018-07-24T07:32:00.884Z,7.17
2018-07-24T07:34:29.264Z,7.92
2018-07-24T07:36:57.669Z,6.70
2018-07-24T07:39:26.052Z,7.80
2018-07-24T07:41:54.413Z,7.60
2018-07-24T07:44:22.844Z,8.13
2018-07-24T07:46:51.237Z,8.87
2018-07-24T07:49:19.673Z,8.73
2018-07-24T07:51:48.071Z,8.98
2018-07-24T07:54:16.494Z,8.83
2018-07-24T07:56:44.963Z,7.93
2018-07-24T07:59:13.405Z,7.50
2018-07-24T08:01:41.862Z,8.40
2018-07-24T08:04:10.304Z,8.48
2018-07-24T08:06:38.740Z,6.63
2018-07-24T08:09:08.631Z,8.33
2018-07-24T08:11:37.024Z,8.33
2018-07-24T08:14:05.476Z,5.72
2018-07-24T08:16:33.872Z,6.63
2018-07-24T08:19:02.283Z,6.17
2018-07-24T08:21:30.751Z,5.30
2018-07-24T08:23:59.141Z,6.80
2018-07-24T08:26:27.716Z,7.67
2018-07-24T08:28:56.147Z,8.07
2018-07-24T08:31:24.557Z,6.10
2018-07-24T08:33:52.988Z,7.35
2018-07-24T08:36:21.395Z,5.53
2018-07-24T08:38:49.807Z,6.62
2018-07-24T08:41:18.201Z,7.37
2018-07-24T08:43:46.668Z,5.58
2018-07-24T08:46:15.088Z,5.13
2018-07-24T08:48:43.469Z,5.27
2018-07-24T08:51:11.908Z,5.37
2018-07-24T08:53:40.606Z,5.65
2018-07-24T08:56:08.738Z,5.85
2018-07-24T08:58:37.211Z,4.58
2018-07-24T09:01:05.608Z,4.97
2018-07-24T09:03:34.214Z,4.30
2018-07-24T09:06:02.516Z,5.07
2018-07-24T09:08:30.933Z,6.40
2018-07-24T09:10:59.365Z,4.70
2018-07-24T09:13:28.109Z,4.92
2018-07-24T09:15:56.609Z,6.70
2018-07-24T09:18:25.060Z,5.40
2018-07-24T09:20:53.609Z,4.30
2018-07-24T09:23:22.176Z,5.08
2018-07-24T09:25:50.737Z,7.80
2018-07-24T09:28:19.136Z,4.15
2018-07-24T09:30:47.615Z,6.05
2018-07-24T09:33:15.989Z,5.97
2018-07-24T09:35:44.404Z,4.78
2018-07-24T09:38:12.832Z,4.08
2018-07-24T09:40:41.452Z,5.47
2018-07-24T09:43:09.836Z,5.30
2018-07-24T09:45:38.323Z,7.12
2018-07-24T09:48:06.735Z,4.78
2018-07-24T09:50:35.164Z,5.47
2018-07-24T09:53:03.676Z,4.72
2018-07-24T09:55:32.075Z,4.78
2018-07-24T09:58:00.532Z,4.92
2018-07-24T10:00:34.446Z,4.75
2018-07-24T10:03:02.849Z,5.12
2018-07-24T10:05:31.389Z,5.00
2018-07-24T10:07:59.713Z,5.05
2018-07-24T10:10:28.182Z,4.47
2018-07-24T10:12:56.731Z,4.40
2018-07-24T10:15:25.108Z,4.85
2018-07-24T10:17:53.566Z,7.12
2018-07-24T10:20:22.041Z,4.35
2018-07-24T10:22:50.627Z,7.12
2018-07-24T10:25:19.051Z,5.20
2018-07-24T10:27:47.448Z,3.60
2018-07-24T10:30:15.942Z,4.25
2018-07-24T10:32:44.467Z,4.08
2018-07-24T10:35:12.932Z,4.35
2018-07-24T10:37:41.380Z,5.08
2018-07-24T10:40:09.784Z,4.33
2018-07-24T10:42:38.293Z,4.47
2018-07-24T10:45:06.856Z,4.53
2018-07-24T10:47:35.340Z,4.28
2018-07-24T10:50:03.811Z,5.05
2018-07-24T10:52:32.248Z,4.80
2018-07-24T10:55:00.686Z,5.47
2018-07-24T10:57:29.192Z,4.78
2018-07-24T10:59:57.617Z,4.17
2018-07-24T11:02:26.007Z,4.65
2018-07-24T11:05:01.110Z,4.58
2018-07-24T11:07:29.512Z,4.25
2018-07-24T11:09:58.068Z,5.90
2018-07-24T11:12:26.527Z,5.05
2018-07-24T11:14:54.981Z,3.90
2018-07-24T11:17:23.408Z,5.70
2018-07-24T11:19:51.791Z,4.30
2018-07-24T11:22:20.301Z,4.30
2018-07-24T11:24:49.553Z,4.67
2018-07-24T11:27:17.974Z,7.15
2018-07-24T11:29:46.499Z,4.58
2018-07-24T11:32:14.935Z,5.10
2018-07-24T11:34:43.365Z,3.60
2018-07-24T11:37:11.824Z,4.45
2018-07-24T11:39:40.224Z,4.08
2018-07-24T11:42:08.847Z,5.12
2018-07-24T11:44:37.285Z,4.95
2018-07-24T11:47:05.741Z,5.33
2018-07-24T11:49:34.176Z,4.70
2018-07-24T11:52:02.633Z,4.95
2018-07-24T11:54:31.228Z,4.65
2018-07-24T11:56:59.628Z,6.70
2018-07-24T11:59:28.077Z,4.62
2018-07-24T12:01:56.490Z,5.90
2018-07-24T12:04:25.220Z,5.35
2018-07-24T12:06:54.029Z,4.00
2018-07-24T12:09:22.493Z,4.08
2018-07-24T12:11:50.907Z,4.03
2018-07-24T12:14:19.349Z,6.30
2018-07-24T12:16:47.767Z,4.78
2018-07-24T12:19:16.289Z,4.65
2018-07-24T12:21:44.724Z,5.08
2018-07-24T12:24:13.764Z,4.00
2018-07-24T12:26:42.417Z,4.78
2018-07-24T12:29:11.104Z,4.28
2018-07-24T12:31:39.505Z,3.90
2018-07-24T12:34:07.960Z,6.15
2018-07-24T12:36:36.381Z,4.25
2018-07-24T12:39:07.661Z,4.42
2018-07-24T12:41:36.160Z,5.55
2018-07-24T12:44:04.644Z,7.17
2018-07-24T12:46:33.676Z,4.85
2018-07-24T12:49:02.073Z,5.90
2018-07-24T12:51:31.204Z,5.92
2018-07-24T12:53:59.665Z,4.90
2018-07-24T12:56:28.159Z,5.20
2018-07-24T12:58:56.591Z,5.00
2018-07-24T13:01:24.987Z,5.58
2018-07-24T13:03:53.411Z,6.90
2018-07-24T13:06:21.888Z,5.22
2018-07-24T13:08:50.453Z,5.05
2018-07-24T13:11:18.863Z,4.40
2018-07-24T13:13:47.299Z,4.83
2018-07-24T13:16:15.699Z,5.08
2018-07-24T13:18:44.121Z,6.12
2018-07-24T13:21:12.496Z,3.90
2018-07-24T13:23:40.966Z,4.15
2018-07-24T13:26:09.456Z,4.92
2018-07-24T13:28:37.973Z,4.37
2018-07-24T13:31:06.489Z,5.45
2018-07-24T13:33:34.902Z,4.58
2018-07-24T13:36:03.361Z,4.42
2018-07-24T13:38:31.776Z,5.72
2018-07-24T13:41:00.189Z,8.13
2018-07-24T13:43:28.683Z,5.55
2018-07-24T13:45:57.097Z,5.65
2018-07-24T13:48:25.572Z,6.65
2018-07-24T13:50:54.037Z,5.17
2018-07-24T13:53:22.533Z,5.05
2018-07-24T13:55:50.968Z,4.22
2018-07-24T13:58:19.811Z,4.92
2018-07-24T14:00:48.229Z,5.45
2018-07-24T14:03:16.673Z,5.17
2018-07-24T14:05:45.196Z,4.58
2018-07-24T14:08:13.727Z,5.30
2018-07-24T14:10:42.233Z,5.00
2018-07-24T14:13:10.651Z,4.90
2018-07-24T14:15:39.060Z,6.15
2018-07-24T14:18:07.437Z,4.12
2018-07-24T14:20:35.844Z,4.50
2018-07-24T14:23:04.312Z,4.85
2018-07-24T14:25:32.729Z,5.55
2018-07-24T14:28:01.158Z,4.95
2018-07-24T14:30:29.608Z,6.03
2018-07-24T14:32:58.048Z,4.42
2018-07-24T14:35:26.456Z,5.50
2018-07-24T14:37:54.599Z,6.92
2018-07-24T14:40:23.044Z,4.72
2018-07-24T14:42:51.431Z,6.20
2018-07-24T14:45:19.932Z,4.58
2018-07-24T14:47:48.352Z,4.58
2018-07-24T14:50:16.828Z,5.40
2018-07-24T14:52:44.938Z,4.60
2018-07-24T14:55:13.361Z,5.60
2018-07-24T14:57:41.826Z,4.78
2018-07-24T15:00:10.276Z,5.00
2018-07-24T15:02:38.757Z,5.15
2018-07-24T15:05:07.477Z,5.90
2018-07-24T15:07:35.959Z,5.03
2018-07-24T15:10:04.728Z,4.65
2018-07-24T15:12:33.173Z,4.62
2018-07-24T15:15:01.720Z,6.62
2018-07-24T15:17:30.113Z,6.12
2018-07-24T15:19:58.571Z,4.87
2018-07-24T15:22:27.065Z,5.95
2018-07-24T15:24:55.483Z,5.12
2018-07-24T15:27:23.909Z,4.58
2018-07-24T15:29:52.312Z,5.03
2018-07-24T15:32:20.741Z,4.53
2018-07-24T15:34:49.282Z,6.15
2018-07-24T15:37:18.039Z,4.83
2018-07-24T15:39:46.540Z,5.60
2018-07-24T15:42:15.148Z,5.62
2018-07-24T15:44:43.588Z,6.95
2018-07-24T15:47:12.100Z,5.17
2018-07-24T15:49:40.455Z,5.50
2018-07-24T15:52:08.904Z,4.62
2018-07-24T15:54:37.592Z,4.85
2018-07-24T15:57:06.156Z,4.60
2018-07-24T15:59:34.641Z,4.58
2018-07-24T16:02:03.028Z,4.87
2018-07-24T16:04:31.466Z,4.90
2018-07-24T16:07:00.017Z,4.83
2018-07-24T16:09:28.449Z,4.37
2018-07-24T16:11:56.632Z,7.45
2018-07-24T16:14:25.014Z,5.03
2018-07-24T16:16:53.496Z,4.42
2018-07-24T16:19:21.948Z,5.25
2018-07-24T16:21:50.376Z,4.70
2018-07-24T16:24:18.765Z,5.37
2018-07-24T16:26:47.170Z,5.30
2018-07-24T16:29:15.549Z,5.42
2018-07-24T16:31:44.489Z,4.80
2018-07-24T16:34:12.953Z,8.35
2018-07-24T16:36:41.364Z,6.08
2018-07-24T16:39:11.129Z,5.12
2018-07-24T16:41:39.897Z,5.65
2018-07-24T16:44:08.311Z,5.62
2018-07-24T16:46:36.767Z,5.25
2018-07-24T16:49:05.460Z,20.17
2018-07-24T16:51:33.887Z,4.83
2018-07-24T16:54:02.326Z,4.67
2018-07-24T16:56:30.989Z,4.90
2018-07-24T16:58:59.472Z,5.03
2018-07-24T17:01:28.034Z,6.80
2018-07-24T17:03:56.493Z,5.22
2018-07-24T17:06:24.908Z,7.03
2018-07-24T17:08:53.328Z,4.85
2018-07-24T17:11:21.761Z,5.67
2018-07-24T17:13:50.174Z,4.87
2018-07-24T17:16:18.849Z,4.92
2018-07-24T17:18:47.304Z,5.05
2018-07-24T17:21:15.740Z,4.67
2018-07-24T17:23:44.277Z,6.05
2018-07-24T17:26:13.001Z,4.72
2018-07-24T17:28:41.387Z,5.03
2018-07-24T17:31:09.917Z,5.33
2018-07-24T17:33:38.356Z,4.97
2018-07-24T17:36:06.539Z,4.70
2018-07-24T17:38:34.943Z,6.17
2018-07-24T17:41:03.530Z,6.55
2018-07-24T17:43:31.904Z,4.58
2018-07-24T17:46:00.391Z,5.17
2018-07-24T17:48:28.985Z,6.85
2018-07-24T17:50:57.476Z,5.75
2018-07-24T17:53:26.407Z,5.28
2018-07-24T17:55:54.864Z,5.70
2018-07-24T17:58:23.296Z,5.08
2018-07-24T18:00:51.772Z,4.97
2018-07-24T18:03:20.197Z,5.08
2018-07-24T18:05:48.780Z,6.17
2018-07-24T18:08:17.191Z,5.15
2018-07-24T18:10:46.044Z,4.85
2018-07-24T18:13:14.500Z,5.60
2018-07-24T18:15:42.991Z,5.40
2018-07-24T18:18:11.380Z,5.22
2018-07-24T18:20:39.838Z,5.58
2018-07-24T18:23:08.362Z,6.17
2018-07-24T18:25:36.775Z,7.10
2018-07-24T18:28:05.224Z,5.72
2018-07-24T18:30:33.717Z,5.33
2018-07-24T18:33:02.269Z,5.60
2018-07-24T18:35:30.804Z,6.33
2018-07-24T18:37:59.325Z,5.33
2018-07-24T18:40:27.804Z,7.15
2018-07-24T18:42:56.224Z,5.60
2018-07-24T18:45:24.816Z,5.83
2018-07-24T18:47:53.234Z,7.25
2018-07-24T18:50:21.684Z,5.97
2018-07-24T18:52:50.084Z,5.70
2018-07-24T18:55:18.571Z,8.18
2018-07-24T18:57:47.055Z,6.05
2018-07-24T19:00:15.572Z,5.83
2018-07-24T19:02:44.020Z,7.08
2018-07-24T19:05:12.536Z,6.10
2018-07-24T19:07:40.924Z,6.10
2018-07-24T19:10:09.547Z,6.10
2018-07-24T19:12:37.946Z,5.75
2018-07-24T19:15:07.140Z,7.37
2018-07-24T19:17:35.766Z,12.55
2018-07-24T19:20:05.103Z,5.90
2018-07-24T19:22:33.576Z,11.63
2018-07-24T19:25:02.045Z,7.75
2018-07-24T19:27:30.589Z,8.50
2018-07-24T19:29:58.711Z,9.80
2018-07-24T19:32:27.104Z,11.35
2018-07-24T19:34:55.556Z,9.48
2018-07-24T19:37:23.938Z,9.63
2018-07-24T19:39:52.395Z,14.28
2018-07-24T19:42:21.007Z,12.58
2018-07-24T19:44:49.507Z,14.90
2018-07-24T19:47:17.947Z,14.20
2018-07-24T19:49:46.410Z,12.33
2018-07-24T19:52:14.840Z,8.70
2018-07-24T19:54:43.442Z,8.08
2018-07-24T19:57:11.892Z,11.30
2018-07-24T19:59:40.363Z,10.93
2018-07-24T20:02:08.866Z,11.70
2018-07-24T20:04:37.743Z,8.63
2018-07-24T20:07:06.394Z,11.35
2018-07-24T20:09:34.918Z,10.82
2018-07-24T20:12:03.398Z,10.70
2018-07-24T20:14:31.917Z,9.23
2018-07-24T20:17:00.378Z,8.83
2018-07-24T20:19:28.876Z,8.80
2018-07-24T20:21:57.444Z,8.15
2018-07-24T20:24:25.900Z,10.75
2018-07-24T20:26:54.559Z,8.00
2018-07-24T20:29:22.972Z,7.58
2018-07-24T20:31:51.493Z,8.40
2018-07-24T20:34:19.923Z,8.53
2018-07-24T20:36:48.616Z,7.33
2018-07-24T20:39:17.144Z,7.28
2018-07-24T20:41:45.677Z,8.77
2018-07-24T20:44:14.088Z,7.93
2018-07-24T20:46:42.559Z,7.90
2018-07-24T20:49:11.076Z,7.67
2018-07-24T20:51:39.582Z,7.40
2018-07-24T20:54:08.048Z,7.53
2018-07-24T20:56:36.516Z,8.37
2018-07-24T20:59:05.016Z,8.00
2018-07-24T21:01:33.645Z,9.53
2018-07-24T21:04:02.120Z,9.03
2018-07-24T21:06:30.870Z,9.27
2018-07-24T21:08:59.307Z,9.27
2018-07-24T21:11:27.754Z,7.50
2018-07-24T21:13:56.176Z,8.77
2018-07-24T21:16:24.597Z,8.23
2018-07-24T21:18:53.045Z,8.67
2018-07-24T21:21:21.528Z,8.23
2018-07-24T21:23:49.921Z,7.47
2018-07-24T21:26:18.380Z,8.30
2018-07-24T21:28:46.984Z,8.40
2018-07-24T21:31:15.442Z,7.73
2018-07-24T21:33:43.872Z,10.00
2018-07-24T21:36:12.320Z,7.30
2018-07-24T21:38:40.743Z,7.43
2018-07-24T21:41:09.200Z,8.00
2018-07-24T21:43:37.580Z,7.33
2018-07-24T21:46:06.454Z,8.37
2018-07-24T21:48:34.888Z,8.07
2018-07-24T21:51:03.325Z,6.27
2018-07-24T21:53:31.865Z,8.43
2018-07-24T21:56:00.277Z,12.10
2018-07-24T21:58:28.708Z,6.90
2018-07-24T22:01:02.614Z,7.00
2018-07-24T22:03:31.032Z,7.83
2018-07-24T22:05:59.631Z,7.20
2018-07-24T22:08:28.076Z,7.70
2018-07-24T22:10:56.506Z,8.60
2018-07-24T22:13:24.976Z,9.00
2018-07-24T22:15:53.456Z,9.37
2018-07-24T22:18:21.893Z,8.93
2018-07-24T22:20:50.382Z,8.40
2018-07-24T22:23:18.885Z,7.63
2018-07-24T22:25:47.301Z,8.90
2018-07-24T22:28:15.777Z,7.97
2018-07-24T22:30:44.199Z,8.00
2018-07-24T22:33:12.584Z,8.80
2018-07-24T22:35:41.048Z,8.13
2018-07-24T22:38:09.457Z,8.73
2018-07-24T22:40:37.919Z,8.63
2018-07-24T22:43:06.571Z,8.70
2018-07-24T22:45:34.992Z,8.43
2018-07-24T22:48:03.392Z,8.20
2018-07-24T22:50:31.902Z,7.80
2018-07-24T22:53:00.516Z,7.87
2018-07-24T22:55:28.929Z,8.27
2018-07-24T22:57:57.396Z,9.53
2018-07-24T23:00:25.811Z,9.33
2018-07-24T23:02:54.266Z,8.20
2018-07-24T23:05:22.669Z,8.00
2018-07-24T23:07:51.156Z,9.23
2018-07-24T23:10:19.564Z,8.90
2018-07-24T23:12:48.048Z,11.17
2018-07-24T23:15:16.493Z,10.47
2018-07-24T23:17:44.916Z,10.00
2018-07-24T23:20:13.314Z,7.73
2018-07-24T23:22:41.829Z,8.90
2018-07-24T23:25:10.258Z,11.17
2018-07-24T23:27:38.636Z,8.20
2018-07-24T23:30:07.167Z,10.30
2018-07-24T23:32:35.560Z,11.97
2018-07-24T23:35:04.516Z,9.93
2018-07-24T23:37:32.949Z,10.57
2018-07-24T23:40:01.304Z,9.33
2018-07-24T23:42:29.732Z,12.63
2018-07-24T23:44:58.173Z,9.23
2018-07-24T23:47:26.308Z,11.00
2018-07-24T23:49:54.756Z,11.70
2018-07-24T23:52:23.137Z,11.73
2018-07-24T23:54:51.722Z,9.50
2018-07-24T23:57:20.144Z,8.63
2018-07-24T23:59:48.609Z,9.27
